Time;durP1;ratioP1;P1;durP2;ratioP2;P2;SDS_P1;SDS_P2;PMS_P1;PMS_P2;Temp;Humidity;BMP_temperature;BMP_pressure;BME280_temperature;BME280_humidity;BME280_pressure;Samples;Min_cycle;Max_cycle;Signal;HPM_P1;HPM_P2
2022/10/12 00:01:21;;;;;;;1.60;0.77;;;;;;;11.31;100.00;100996.28;5062560;28;21712;-78
2022/10/12 00:03:47;;;;;;;1.80;0.80;;;;;;;11.29;100.00;100992.09;5064814;28;20031;-77
2022/10/12 00:06:16;;;;;;;3.92;1.05;;;;;;;11.26;100.00;100981.69;5049371;28;21004;-75
2022/10/12 00:08:44;;;;;;;4.72;0.93;;;;;;;11.23;100.00;100986.38;5064128;28;20102;-76
2022/10/12 00:11:18;;;;;;;2.72;0.60;;;;;;;11.22;100.00;100979.34;5096980;28;20033;-76
2022/10/12 00:13:44;;;;;;;1.95;0.77;;;;;;;11.26;100.00;100985.19;5048198;28;20043;-75
2022/10/12 00:16:11;;;;;;;1.30;0.85;;;;;;;11.21;100.00;100972.25;5035831;28;20032;-76
2022/10/12 00:18:37;;;;;;;2.92;0.80;;;;;;;11.29;100.00;100979.47;5066200;28;20040;-78
2022/10/12 00:21:09;;;;;;;1.65;0.95;;;;;;;11.34;100.00;100985.16;5032054;28;20032;-78
2022/10/12 00:23:36;;;;;;;1.08;0.82;;;;;;;11.31;100.00;100974.75;5058332;28;20890;-78
2022/10/12 00:26:05;;;;;;;1.33;0.63;;;;;;;11.32;100.00;100978.28;5059857;28;20056;-78
2022/10/12 00:28:31;;;;;;;1.70;1.00;;;;;;;11.28;100.00;100979.66;5046432;28;20037;-78
2022/10/12 00:30:56;;;;;;;1.75;0.70;;;;;;;11.27;100.00;100981.47;5051322;28;20037;-79
2022/10/12 00:33:23;;;;;;;3.95;0.93;;;;;;;11.19;100.00;100965.38;5062107;28;20025;-78
2022/10/12 00:35:48;;;;;;;1.55;0.90;;;;;;;11.28;100.00;100983.19;5067437;28;20032;-78
2022/10/12 00:38:14;;;;;;;3.30;0.93;;;;;;;11.28;100.00;100982.34;5047136;28;20036;-78
2022/10/12 00:40:40;;;;;;;1.35;0.63;;;;;;;11.08;100.00;100944.22;5048195;28;20028;-78
2022/10/12 00:43:26;;;;;;;2.60;0.90;;;;;;;11.33;100.00;100978.13;5042429;28;20036;-78
2022/10/12 00:45:52;;;;;;;0.52;0.52;;;;;;;11.38;100.00;100982.97;5064220;28;20064;-77
2022/10/12 00:48:18;;;;;;;1.77;0.63;;;;;;;11.39;100.00;100981.94;5049784;28;20063;-77
2022/10/12 00:50:43;;;;;;;0.80;0.60;;;;;;;11.41;100.00;100971.84;5033328;28;20477;-78
2022/10/12 00:53:17;;;;;;;1.25;0.70;;;;;;;11.42;100.00;100968.97;5084556;28;20063;-77
2022/10/12 00:55:44;;;;;;;;;;;;;;;11.48;100.00;100974.66;5064936;28;20032;-77
2022/10/12 00:58:10;;;;;;;0.80;0.70;;;;;;;11.48;100.00;100972.81;5083825;28;19924;-77
2022/10/12 01:00:37;;;;;;;1.23;1.13;;;;;;;11.49;100.00;100960.19;5062642;28;20047;-77
2022/10/12 01:03:03;;;;;;;1.00;0.70;;;;;;;11.49;100.00;100962.91;5035256;28;20102;-78
2022/10/12 01:05:29;;;;;;;0.82;0.63;;;;;;;11.51;100.00;100977.00;5047143;28;20074;-80
2022/10/12 01:07:54;;;;;;;1.13;0.50;;;;;;;11.49;100.00;100970.97;5067363;28;20024;-76
2022/10/12 01:10:20;;;;;;;1.70;0.60;;;;;;;11.47;100.00;100965.75;5064559;28;20040;-78
2022/10/12 01:12:47;;;;;;;0.75;0.50;;;;;;;11.38;100.00;100953.38;5042188;28;20025;-78
2022/10/12 01:15:13;;;;;;;1.25;0.50;;;;;;;11.45;100.00;100967.78;5049836;28;20032;-78
2022/10/12 01:18:11;;;;;;;1.17;0.57;;;;;;;11.47;100.00;100975.69;5024306;28;20039;-78
2022/10/12 01:21:04;;;;;;;1.85;0.68;;;;;;;11.39;100.00;100973.88;5040132;28;20076;-78
2022/10/12 01:23:42;;;;;;;1.88;0.50;;;;;;;11.37;100.00;100967.81;5047188;28;20048;-78
2022/10/12 01:27:01;;;;;;;1.55;0.88;;;;;;;11.27;100.00;100949.19;5063252;28;20479;-77
2022/10/12 01:29:51;;;;;;;1.75;0.70;;;;;;;11.31;100.00;100955.91;4971270;28;20038;-78
2022/10/12 01:32:23;;;;;;;0.50;0.50;;;;;;;11.31;100.00;100961.28;4985169;28;20117;-78
2022/10/12 01:35:04;;;;;;;0.40;0.40;;;;;;;11.29;100.00;100952.53;5039264;28;20051;-77
2022/10/12 01:37:48;;;;;;;0.93;0.68;;;;;;;11.25;100.00;100942.31;5037908;28;20131;-77
2022/10/12 01:40:17;;;;;;;0.55;0.55;;;;;;;11.27;100.00;100951.88;5044333;28;20036;-76
2022/10/12 01:42:43;;;;;;;0.60;0.60;;;;;;;11.31;100.00;100955.06;5063286;28;20381;-77
2022/10/12 01:45:13;;;;;;;1.73;0.60;;;;;;;11.29;100.00;100943.63;5054170;28;20482;-76
2022/10/12 01:47:39;;;;;;;0.95;0.70;;;;;;;11.31;100.00;100949.69;5029881;28;20084;-75
2022/10/12 01:50:10;;;;;;;0.50;0.50;;;;;;;11.22;100.00;100925.50;5031394;28;20048;-76
2022/10/12 01:53:23;;;;;;;1.58;0.60;;;;;;;11.32;100.00;100941.41;5042099;28;20036;-76
2022/10/12 01:56:01;;;;;;;1.95;0.77;;;;;;;11.26;100.00;100931.38;5043542;28;20041;-76
2022/10/12 01:58:27;;;;;;;1.23;0.43;;;;;;;11.34;100.00;100952.84;5069384;28;20142;-76
2022/10/12 02:01:45;;;;;;;1.92;0.75;;;;;;;11.35;100.00;100957.25;5046822;28;20127;-77
2022/10/12 02:04:19;;;;;;;0.65;0.50;;;;;;;11.37;100.00;100951.66;5029904;28;20544;-76
2022/10/12 02:06:51;;;;;;;0.50;0.50;;;;;;;11.37;100.00;100955.19;5049737;28;20092;-76
2022/10/12 02:09:26;;;;;;;1.05;0.77;;;;;;;11.39;100.00;100952.34;5053789;28;20111;-77
2022/10/12 02:11:56;;;;;;;0.38;0.38;;;;;;;11.40;100.00;100951.31;5017619;28;20048;-76
2022/10/12 02:14:45;;;;;;;0.30;0.30;;;;;;;11.36;100.00;100942.75;5045736;28;20029;-75
2022/10/12 02:17:12;;;;;;;0.30;0.30;;;;;;;11.39;100.00;100950.47;5056798;28;20028;-75
2022/10/12 02:19:41;;;;;;;0.30;0.30;;;;;;;11.30;100.00;100938.09;5030060;28;20054;-76
2022/10/12 02:22:08;;;;;;;0.30;0.30;;;;;;;11.31;100.00;100939.75;5030241;28;20432;-75
2022/10/12 02:24:38;;;;;;;0.40;0.40;;;;;;;11.39;100.00;100945.09;5061525;28;20033;-76
2022/10/12 02:27:06;;;;;;;0.40;0.40;;;;;;;11.34;100.00;100942.09;5065872;28;20085;-75
2022/10/12 02:29:37;;;;;;;0.30;0.30;;;;;;;11.40;100.00;100944.06;5034673;28;20474;-74
2022/10/12 02:32:31;;;;;;;0.40;0.40;;;;;;;11.39;100.00;100930.78;5052771;28;20044;-77
2022/10/12 02:35:08;;;;;;;0.30;0.30;;;;;;;11.41;100.00;100932.31;5066325;28;20062;-76
2022/10/12 02:37:49;;;;;;;0.32;0.32;;;;;;;11.40;100.00;100919.84;5039065;28;20043;-76
2022/10/12 02:40:23;;;;;;;0.30;0.30;;;;;;;11.43;100.00;100926.72;5068601;28;20033;-76
2022/10/12 02:43:15;;;;;;;0.32;0.32;;;;;;;11.46;100.00;100937.16;5078729;28;20485;-77
2022/10/12 02:45:43;;;;;;;0.38;0.38;;;;;;;11.48;100.00;100932.41;5051105;28;20036;-76
2022/10/12 02:48:11;;;;;;;0.30;0.30;;;;;;;11.48;100.00;100934.28;5059543;28;20048;-77
2022/10/12 02:50:37;;;;;;;0.30;0.30;;;;;;;11.50;100.00;100953.78;5097454;28;20545;-77
2022/10/12 02:53:03;;;;;;;0.40;0.40;;;;;;;11.52;100.00;100963.38;5064299;28;20489;-76
2022/10/12 02:55:30;;;;;;;0.30;0.30;;;;;;;11.49;100.00;100942.19;5044587;28;20777;-76
2022/10/12 02:57:55;;;;;;;0.30;0.30;;;;;;;11.59;100.00;100931.16;5061165;28;20032;-77
2022/10/12 03:00:21;;;;;;;0.30;0.30;;;;;;;11.70;100.00;100943.41;5059828;28;20478;-75
2022/10/12 03:02:47;;;;;;;0.40;0.40;;;;;;;11.77;100.00;100938.97;5043826;28;20111;-75
2022/10/12 03:05:13;;;;;;;0.43;0.43;;;;;;;11.82;100.00;100950.88;5036245;28;20103;-75
2022/10/12 03:07:38;;;;;;;0.40;0.40;;;;;;;11.80;100.00;100934.06;5027402;28;20044;-76
2022/10/12 03:10:04;;;;;;;0.30;0.30;;;;;;;11.90;100.00;100946.50;5058947;28;20036;-74
2022/10/12 03:12:30;;;;;;;0.40;0.40;;;;;;;11.93;100.00;100952.34;5094506;28;20032;-75
2022/10/12 03:14:56;;;;;;;0.30;0.30;;;;;;;11.97;100.00;100953.69;5036770;28;20118;-76
2022/10/12 03:17:21;;;;;;;0.32;0.32;;;;;;;11.93;100.00;100943.44;5051257;28;20049;-76
2022/10/12 03:19:47;;;;;;;0.40;0.40;;;;;;;11.94;100.00;100951.34;5051553;28;20374;-77
2022/10/12 03:22:13;;;;;;;0.40;0.40;;;;;;;11.99;100.00;100953.50;5034172;28;20032;-75
2022/10/12 03:24:38;;;;;;;0.35;0.35;;;;;;;12.00;100.00;100964.09;5062874;28;20032;-75
2022/10/12 03:27:04;;;;;;;0.30;0.30;;;;;;;12.02;100.00;100958.53;5069337;28;20067;-75
2022/10/12 03:29:29;;;;;;;0.30;0.30;;;;;;;12.01;100.00;100955.00;5044972;28;20028;-77
2022/10/12 03:31:55;;;;;;;0.35;0.35;;;;;;;12.02;100.00;100958.53;5046662;28;20105;-76
2022/10/12 03:34:20;;;;;;;0.40;0.40;;;;;;;12.03;100.00;100970.97;5050071;28;20454;-76
2022/10/12 03:36:46;;;;;;;0.30;0.30;;;;;;;12.04;100.00;100967.25;5031598;28;20039;-77
2022/10/12 03:39:12;;;;;;;0.30;0.30;;;;;;;12.02;100.00;100972.84;5066532;28;20036;-77
2022/10/12 03:41:37;;;;;;;0.40;0.40;;;;;;;11.98;100.00;100965.28;5034685;28;20385;-76
2022/10/12 03:44:03;;;;;;;0.38;0.38;;;;;;;11.96;100.00;100970.88;5045041;28;20486;-76
2022/10/12 03:46:29;;;;;;;0.40;0.40;;;;;;;12.05;100.00;100985.13;5039192;28;20040;-75
2022/10/12 03:48:54;;;;;;;0.30;0.30;;;;;;;12.07;100.00;100989.31;5029453;28;20071;-77
2022/10/12 03:51:20;;;;;;;0.40;0.40;;;;;;;12.07;100.00;100983.09;5051773;28;20068;-76
2022/10/12 03:53:46;;;;;;;0.30;0.30;;;;;;;12.07;100.00;100965.06;5051645;28;20470;-76
2022/10/12 03:56:12;;;;;;;0.30;0.30;;;;;;;12.03;100.00;100947.56;5048433;28;20068;-75
2022/10/12 03:58:37;;;;;;;0.40;0.40;;;;;;;12.05;100.00;100963.56;5043766;28;20098;-76
2022/10/12 04:01:03;;;;;;;0.30;0.30;;;;;;;12.02;100.00;100963.94;5066276;28;20043;-76
2022/10/12 04:03:28;;;;;;;0.38;0.38;;;;;;;11.99;100.00;100962.44;5027717;28;20544;-77
2022/10/12 04:05:55;;;;;;;0.40;0.40;;;;;;;11.98;100.00;100966.13;5047146;28;20048;-76
2022/10/12 04:08:22;;;;;;;0.30;0.30;;;;;;;11.95;100.00;100961.09;5063566;28;20054;-76
2022/10/12 04:10:49;;;;;;;0.40;0.40;;;;;;;11.81;100.00;100953.78;5048478;28;20067;-76
2022/10/12 04:13:16;;;;;;;0.30;0.30;;;;;;;11.79;100.00;100937.78;5063873;28;20056;-76
2022/10/12 04:15:42;;;;;;;0.40;0.40;;;;;;;11.71;100.00;100945.09;5049762;28;20182;-77
2022/10/12 04:18:07;;;;;;;0.30;0.30;;;;;;;11.59;100.00;100955.41;5056293;28;20135;-76
2022/10/12 04:20:33;;;;;;;0.30;0.30;;;;;;;11.55;100.00;100963.00;5028720;28;20043;-78
2022/10/12 04:22:59;;;;;;;0.40;0.40;;;;;;;11.49;100.00;100961.03;5049572;28;20044;-76
2022/10/12 04:25:24;;;;;;;0.40;0.40;;;;;;;11.42;100.00;100955.50;5060686;28;20288;-76
2022/10/12 04:27:50;;;;;;;0.40;0.40;;;;;;;11.48;100.00;100964.72;5064937;28;20033;-76
2022/10/12 04:30:16;;;;;;;0.30;0.30;;;;;;;11.55;100.00;100959.47;5059734;28;20040;-75
2022/10/12 04:32:41;;;;;;;0.40;0.40;;;;;;;11.63;100.00;100945.97;5048124;28;20479;-75
2022/10/12 04:35:08;;;;;;;0.40;0.40;;;;;;;11.58;100.00;100948.34;5049283;28;22811;-76
2022/10/12 04:37:33;;;;;;;0.40;0.40;;;;;;;11.63;100.00;100959.44;5036425;28;20394;-76
2022/10/12 04:39:59;;;;;;;0.40;0.40;;;;;;;11.65;100.00;100968.19;5050572;28;20041;-76
2022/10/12 04:42:25;;;;;;;0.30;0.30;;;;;;;11.68;100.00;100964.28;5059520;28;20182;-77
2022/10/12 04:44:50;;;;;;;0.40;0.40;;;;;;;11.69;100.00;100964.09;5063640;28;20043;-76
2022/10/12 04:47:16;;;;;;;0.40;0.40;;;;;;;11.72;100.00;100965.59;5061983;28;20036;-76
2022/10/12 04:49:42;;;;;;;0.50;0.50;;;;;;;11.71;100.00;100958.53;5025595;28;20093;-76
2022/10/12 04:52:07;;;;;;;0.40;0.40;;;;;;;11.73;100.00;100965.44;5049541;28;20086;-76
2022/10/12 04:54:33;;;;;;;0.40;0.40;;;;;;;11.76;100.00;100954.28;5064770;28;20039;-77
2022/10/12 04:56:58;;;;;;;0.40;0.40;;;;;;;11.83;100.00;100960.66;5048758;28;20045;-76
2022/10/12 04:59:24;;;;;;;0.40;0.40;;;;;;;11.86;100.00;100965.72;5031070;28;20047;-76
2022/10/12 05:01:50;;;;;;;0.40;0.40;;;;;;;11.85;100.00;100952.38;5046661;28;20043;-77
2022/10/12 05:04:15;;;;;;;0.40;0.40;;;;;;;11.91;100.00;100950.84;5066458;28;20436;-76
2022/10/12 05:06:41;;;;;;;0.40;0.40;;;;;;;11.94;100.00;100950.50;5044495;28;20069;-75
2022/10/12 05:09:06;;;;;;;0.32;0.32;;;;;;;11.95;100.00;100942.22;5055712;28;20090;-75
2022/10/12 05:11:32;;;;;;;0.40;0.40;;;;;;;11.98;100.00;100951.81;5052954;28;20103;-76
2022/10/12 05:13:58;;;;;;;0.40;0.40;;;;;;;11.99;100.00;100961.59;5049361;28;20337;-75
2022/10/12 05:16:24;;;;;;;0.40;0.40;;;;;;;11.98;100.00;100962.59;5030843;28;20091;-75
2022/10/12 05:18:49;;;;;;;0.30;0.30;;;;;;;11.89;100.00;100953.75;5027827;28;20663;-74
2022/10/12 05:21:15;;;;;;;0.40;0.40;;;;;;;11.96;100.00;100973.56;5028932;28;20078;-78
2022/10/12 05:23:41;;;;;;;0.40;0.40;;;;;;;11.99;100.00;100972.38;5058844;28;20053;-77
2022/10/12 05:26:07;;;;;;;0.30;0.30;;;;;;;11.95;100.00;100979.97;5045817;28;20390;-76
2022/10/12 05:28:32;;;;;;;0.40;0.40;;;;;;;11.86;100.00;100965.72;5048503;28;20037;-76
2022/10/12 05:30:58;;;;;;;0.40;0.40;;;;;;;11.82;100.00;100968.91;5061337;28;20039;-75
2022/10/12 05:33:24;;;;;;;0.40;0.40;;;;;;;11.80;100.00;100969.09;5065319;28;20291;-75
2022/10/12 05:35:49;;;;;;;0.40;0.40;;;;;;;11.74;100.00;100987.81;5061435;28;20078;-75
2022/10/12 05:38:15;;;;;;;0.30;0.30;;;;;;;11.64;100.00;100977.25;5048843;28;20389;-75
2022/10/12 05:40:42;;;;;;;0.40;0.40;;;;;;;11.54;100.00;100976.66;5055712;28;20083;-75
2022/10/12 05:43:08;;;;;;;0.30;0.30;;;;;;;11.40;100.00;100979.06;5046625;28;20045;-75
2022/10/12 05:45:33;;;;;;;0.40;0.40;;;;;;;11.37;100.00;100982.13;5058903;28;20051;-77
2022/10/12 05:48:01;;;;;;;0.35;0.35;;;;;;;11.33;100.00;100969.22;5065669;28;20033;-76
2022/10/12 05:50:27;;;;;;;0.35;0.35;;;;;;;11.29;100.00;100975.94;5046997;28;20036;-75
2022/10/12 05:52:52;;;;;;;0.40;0.40;;;;;;;11.24;100.00;100971.06;5042421;28;20054;-76
2022/10/12 05:55:18;;;;;;;0.40;0.40;;;;;;;11.23;100.00;100969.41;5052498;28;20037;-76
2022/10/12 05:57:44;;;;;;;0.40;0.40;;;;;;;11.26;100.00;100984.38;5053252;28;20043;-76
2022/10/12 06:00:10;;;;;;;0.40;0.40;;;;;;;11.28;100.00;100975.09;5048267;28;20056;-75
2022/10/12 06:02:36;;;;;;;0.30;0.30;;;;;;;11.36;100.00;100975.06;5053740;28;20623;-76
2022/10/12 06:05:02;;;;;;;0.30;0.30;;;;;;;11.42;100.00;100968.13;5050360;28;20033;-76
2022/10/12 06:07:30;;;;;;;0.40;0.40;;;;;;;11.43;100.00;100970.66;5067305;28;20060;-75
2022/10/12 06:09:55;;;;;;;0.40;0.40;;;;;;;11.43;100.00;100969.78;5050844;28;20052;-76
2022/10/12 06:12:22;;;;;;;0.40;0.40;;;;;;;11.48;100.00;100985.44;5050434;28;20482;-76
2022/10/12 06:14:48;;;;;;;0.40;0.40;;;;;;;11.46;100.00;100991.00;5066509;28;20355;-76
2022/10/12 06:17:14;;;;;;;0.40;0.40;;;;;;;11.41;100.00;100988.00;5068851;28;20044;-76
2022/10/12 06:19:40;;;;;;;0.40;0.40;;;;;;;11.33;100.00;100977.28;5069355;28;20036;-77
2022/10/12 06:22:11;;;;;;;0.40;0.40;;;;;;;11.39;100.00;101008.88;5026920;28;20117;-76
2022/10/12 06:24:37;;;;;;;0.40;0.40;;;;;;;11.34;100.00;101014.78;5052192;28;20051;-76
2022/10/12 06:27:03;;;;;;;0.40;0.40;;;;;;;11.28;100.00;101010.09;5035693;28;20040;-76
2022/10/12 06:29:29;;;;;;;0.40;0.40;;;;;;;11.27;100.00;101027.25;5030823;28;20055;-76
2022/10/12 06:31:55;;;;;;;0.40;0.40;;;;;;;11.23;100.00;101037.53;5043295;28;20044;-76
2022/10/12 06:34:20;;;;;;;0.40;0.40;;;;;;;11.25;100.00;101053.53;5049381;28;20124;-76
2022/10/12 06:36:47;;;;;;;0.30;0.30;;;;;;;11.21;100.00;101050.31;5067968;28;20028;-75
2022/10/12 06:39:12;;;;;;;0.40;0.40;;;;;;;11.20;100.00;101050.50;5062308;28;20117;-76
2022/10/12 06:41:38;;;;;;;0.40;0.40;;;;;;;11.17;100.00;101040.94;5080129;28;20557;-75
2022/10/12 06:44:04;;;;;;;0.40;0.40;;;;;;;11.18;100.00;101034.50;5050374;28;20042;-78
2022/10/12 06:46:30;;;;;;;0.45;0.45;;;;;;;11.14;100.00;101002.72;5071564;28;20071;-76
2022/10/12 06:48:55;;;;;;;0.40;0.40;;;;;;;11.15;100.00;100999.03;5043463;28;20367;-77
2022/10/12 06:51:21;;;;;;;0.40;0.40;;;;;;;11.16;100.00;101003.41;5064796;28;20025;-76
2022/10/12 06:53:46;;;;;;;0.40;0.40;;;;;;;11.15;100.00;100999.88;5061738;28;20028;-75
2022/10/12 06:56:12;;;;;;;0.50;0.50;;;;;;;11.15;100.00;100999.88;5040758;28;20036;-76
2022/10/12 06:58:38;;;;;;;0.30;0.30;;;;;;;11.06;100.00;100998.25;5071197;28;20363;-77
2022/10/12 07:01:06;;;;;;;0.40;0.40;;;;;;;11.13;100.00;101006.44;5057940;28;20395;-76
2022/10/12 07:03:32;;;;;;;0.40;0.40;;;;;;;11.11;100.00;101016.53;5053497;28;20116;-77
2022/10/12 07:06:06;;;;;;;0.50;0.50;;;;;;;11.06;100.00;101014.38;5038517;28;20123;-75
2022/10/12 07:08:32;;;;;;;0.40;0.40;;;;;;;11.05;100.00;101001.94;5048309;28;20033;-78
2022/10/12 07:11:02;;;;;;;0.40;0.40;;;;;;;10.97;100.00;100985.81;5048784;28;20128;-75
2022/10/12 07:13:28;;;;;;;0.47;0.47;;;;;;;10.97;100.00;100999.25;5063726;28;20055;-75
2022/10/12 07:15:54;;;;;;;0.63;0.63;;;;;;;10.88;100.00;100998.44;5046083;28;20040;-77
2022/10/12 07:18:19;;;;;;;0.40;0.40;;;;;;;10.88;100.00;100997.63;5062989;28;20032;-77
2022/10/12 07:20:45;;;;;;;0.40;0.40;;;;;;;10.83;100.00;100992.75;5075211;28;20449;-75
2022/10/12 07:23:11;;;;;;;0.40;0.40;;;;;;;10.92;100.00;101005.16;5051125;28;20139;-75
2022/10/12 07:25:36;;;;;;;0.40;0.40;;;;;;;10.95;100.00;101006.66;5067675;28;20513;-76
2022/10/12 07:28:04;;;;;;;0.40;0.40;;;;;;;10.95;100.00;101003.97;5084000;28;20506;-75
2022/10/12 07:30:30;;;;;;;0.40;0.40;;;;;;;11.04;100.00;101015.56;5068692;28;20067;-75
2022/10/12 07:32:55;;;;;;;0.40;0.40;;;;;;;11.05;100.00;101030.69;5064176;28;20521;-76
2022/10/12 07:35:21;;;;;;;0.50;0.50;;;;;;;11.02;100.00;101037.25;5082572;28;20032;-76
2022/10/12 07:37:48;;;;;;;0.40;0.40;;;;;;;11.05;100.00;101042.28;5065131;28;20048;-76
2022/10/12 07:40:14;;;;;;;0.40;0.40;;;;;;;11.04;100.00;101039.78;5048551;28;20099;-75
2022/10/12 07:42:40;;;;;;;0.40;0.40;;;;;;;11.10;100.00;101041.78;5069087;28;20166;-76
2022/10/12 07:45:06;;;;;;;0.40;0.40;;;;;;;11.20;100.00;101048.66;5070374;28;20032;-75
2022/10/12 07:47:32;;;;;;;0.40;0.40;;;;;;;11.33;100.00;101052.66;5051069;28;20047;-75
2022/10/12 07:49:57;;;;;;;0.40;0.40;;;;;;;11.35;100.00;101054.16;5065931;28;20025;-75
2022/10/12 07:52:26;;;;;;;0.50;0.50;;;;;;;11.40;100.00;101050.94;5067876;28;20087;-75
2022/10/12 07:54:51;;;;;;;0.40;0.40;;;;;;;11.40;100.00;101049.06;5068383;28;20033;-75
2022/10/12 07:57:17;;;;;;;0.40;0.40;;;;;;;11.52;100.00;101062.19;5053384;28;20041;-76
2022/10/12 07:59:42;;;;;;;0.32;0.32;;;;;;;11.55;100.00;101054.56;5052155;28;20394;-76
2022/10/12 08:02:10;;;;;;;0.40;0.40;;;;;;;11.54;100.00;101047.53;5069675;28;20138;-76
2022/10/12 08:04:36;;;;;;;0.40;0.40;;;;;;;11.52;100.00;101054.94;5024952;28;20398;-76
2022/10/12 08:07:01;;;;;;;0.40;0.40;;;;;;;11.49;100.00;101059.84;5048215;28;20181;-75
2022/10/12 08:09:27;;;;;;;0.40;0.40;;;;;;;11.44;100.00;101058.50;5047605;28;20033;-75
2022/10/12 08:11:53;;;;;;;0.40;0.40;;;;;;;11.44;100.00;101057.66;5036610;28;20048;-76
2022/10/12 08:14:18;;;;;;;0.30;0.30;;;;;;;11.43;100.00;101054.13;5050055;28;20041;-76
2022/10/12 08:16:44;;;;;;;0.50;0.50;;;;;;;11.41;100.00;101050.75;5066633;28;20171;-75
2022/10/12 08:19:10;;;;;;;0.40;0.40;;;;;;;11.50;100.00;101064.19;5043280;28;20032;-76
2022/10/12 08:21:36;;;;;;;0.40;0.40;;;;;;;11.53;100.00;101061.16;5066873;28;20027;-75
2022/10/12 08:24:02;;;;;;;0.40;0.40;;;;;;;11.60;100.00;101062.13;5036661;28;20032;-75
2022/10/12 08:26:29;;;;;;;0.40;0.40;;;;;;;11.66;100.00;101067.66;5095050;28;20048;-76
2022/10/12 08:28:54;;;;;;;0.40;0.40;;;;;;;11.75;100.00;101078.38;5066296;28;20024;-75
2022/10/12 08:31:21;;;;;;;0.60;0.60;;;;;;;11.85;100.00;101076.31;5050413;28;20039;-76
2022/10/12 08:33:46;;;;;;;0.50;0.50;;;;;;;11.91;100.00;101064.03;5067702;28;20033;-78
2022/10/12 08:36:12;;;;;;;0.50;0.50;;;;;;;12.15;100.00;101063.06;5069258;28;20489;-79
2022/10/12 08:38:38;;;;;;;0.40;0.40;;;;;;;12.18;100.00;101073.47;5070214;28;20032;-80
2022/10/12 08:41:22;;;;;;;0.50;0.50;;;;;;;12.16;100.00;101068.25;5070316;28;20525;-79
2022/10/12 08:44:16;;;;;;;0.50;0.50;;;;;;;12.13;100.00;101068.63;5053018;28;20491;-79
2022/10/12 08:46:41;;;;;;;0.40;0.40;;;;;;;12.17;100.00;101077.16;5070591;28;20028;-78
2022/10/12 08:49:13;;;;;;;0.50;0.50;;;;;;;12.25;100.00;101077.97;5063131;28;20031;-78
2022/10/12 08:51:47;;;;;;;0.40;0.40;;;;;;;12.37;100.00;101080.25;5066739;28;20394;-78
2022/10/12 08:54:14;;;;;;;0.50;0.50;;;;;;;12.48;100.00;101077.13;5037077;28;20115;-79
2022/10/12 08:56:40;;;;;;;0.50;0.50;;;;;;;12.54;100.00;101079.09;5067099;28;20067;-79
2022/10/12 08:59:14;;;;;;;0.40;0.40;;;;;;;12.59;100.00;101079.38;5065440;28;20065;-80
2022/10/12 09:02:11;;;;;;;0.40;0.40;;;;;;;12.50;100.00;101062.44;5069692;28;20078;-80
2022/10/12 09:04:39;;;;;;;0.40;0.40;;;;;;;12.68;100.00;101078.31;5033088;28;20049;-78
2022/10/12 09:07:25;;;;;;;0.43;0.43;;;;;;;12.75;100.00;101083.81;5050246;28;20119;-76
2022/10/12 09:09:57;;;;;;;0.40;0.40;;;;;;;12.85;100.00;101081.69;5064003;28;20478;-77
2022/10/12 09:12:38;;;;;;;0.40;0.40;;;;;;;12.91;100.00;101069.31;5057652;28;20563;-81
2022/10/12 09:15:19;;;;;;;0.40;0.40;;;;;;;12.96;100.00;101054.25;5046680;28;20474;-80
2022/10/12 09:17:49;;;;;;;0.38;0.38;;;;;;;13.12;100.00;101057.81;5064139;28;20509;-77
2022/10/12 09:20:24;;;;;;;0.45;0.45;;;;;;;13.18;100.00;101063.31;5047141;28;20041;-77
2022/10/12 09:22:54;;;;;;;0.50;0.50;;;;;;;13.06;100.00;101032.41;5057794;28;20111;-77
2022/10/12 09:25:25;;;;;;;0.47;0.47;;;;;;;13.17;100.00;101055.41;5048949;28;20408;-81
2022/10/12 09:27:51;;;;;;;0.40;0.40;;;;;;;13.12;100.00;101047.00;5062838;28;20063;-77
2022/10/12 09:30:18;;;;;;;0.50;0.50;;;;;;;13.15;100.00;101058.31;5067884;28;20390;-77
2022/10/12 09:32:56;;;;;;;0.50;0.50;;;;;;;13.12;100.00;101050.53;5063413;28;20044;-76
2022/10/12 09:35:22;;;;;;;0.40;0.40;;;;;;;13.22;100.00;101068.34;5067308;28;20029;-76
2022/10/12 09:37:51;;;;;;;0.40;0.40;;;;;;;13.27;100.00;101072.19;5066869;28;20494;-77
2022/10/12 09:40:22;;;;;;;0.40;0.40;;;;;;;13.36;100.00;101071.09;5065958;28;20056;-77
2022/10/12 09:42:47;;;;;;;0.35;0.35;;;;;;;13.40;100.00;101071.56;5064926;28;20044;-76
2022/10/12 09:45:19;;;;;;;0.40;0.40;;;;;;;13.51;100.00;101075.66;5046781;28;20036;-77
2022/10/12 09:48:07;;;;;;;0.40;0.40;;;;;;;13.59;100.00;101079.06;5060498;28;20043;-75
2022/10/12 09:50:48;;;;;;;0.40;0.40;;;;;;;13.68;100.00;101084.38;5057262;28;20035;-81
2022/10/12 09:53:27;;;;;;;0.40;0.40;;;;;;;13.79;100.00;101086.63;5035405;28;20752;-79
2022/10/12 09:55:59;;;;;;;0.40;0.40;;;;;;;13.91;100.00;101092.34;5064948;28;20039;-80
2022/10/12 09:58:26;;;;;;;0.40;0.40;;;;;;;13.94;100.00;101092.81;5068079;28;20132;-77
2022/10/12 10:01:15;;;;;;;0.50;0.50;;;;;;;13.89;100.00;101089.84;5064574;28;20166;-80
2022/10/12 10:03:40;;;;;;;0.50;0.50;;;;;;;13.97;100.00;101092.47;5049157;28;20478;-79
2022/10/12 10:06:07;;;;;;;0.40;0.40;;;;;;;14.10;100.00;101093.63;5057976;28;20036;-79
2022/10/12 10:08:43;;;;;;;0.40;0.40;;;;;;;14.08;100.00;101102.78;5062664;28;20112;-77
2022/10/12 10:11:21;;;;;;;0.40;0.40;;;;;;;14.11;100.00;101111.53;5042878;28;20105;-77
2022/10/12 10:13:50;;;;;;;0.40;0.40;;;;;;;14.18;100.00;101113.25;5078926;28;20029;-77
2022/10/12 10:16:17;;;;;;;0.43;0.43;;;;;;;14.25;100.00;101107.94;5068381;28;20044;-80
2022/10/12 10:18:49;;;;;;;0.40;0.40;;;;;;;14.33;100.00;101117.81;5033611;28;20125;-78
2022/10/12 10:21:36;;;;;;;0.50;0.50;;;;;;;14.30;100.00;101117.16;5024088;28;20037;-79
2022/10/12 10:24:23;;;;;;;0.60;0.60;;;;;;;14.25;100.00;101125.00;5053963;28;20039;-79
2022/10/12 10:26:58;;;;;;;9.50;1.38;;;;;;;14.20;100.00;101122.03;5060601;28;20154;-76
2022/10/12 10:29:38;;;;;;;0.40;0.40;;;;;;;14.20;100.00;101124.72;5047899;28;20434;-78
2022/10/12 10:32:22;;;;;;;0.63;0.60;;;;;;;14.03;100.00;101126.84;5032163;28;20037;-79
2022/10/12 10:35:16;;;;;;;0.70;0.70;;;;;;;13.98;100.00;101142.78;5031802;28;20431;-76
2022/10/12 10:37:44;;;;;;;3.03;0.95;;;;;;;13.92;100.00;101134.56;5049603;28;20028;-77
2022/10/12 10:40:19;;;;;;;0.50;0.50;;;;;;;13.85;100.00;101139.91;5052455;28;20078;-78
2022/10/12 10:42:49;;;;;;;13.63;1.30;;;;;;;13.84;100.00;101136.38;5047904;28;20055;-77
2022/10/12 10:45:41;;;;;;;1.85;0.80;;;;;;;13.92;100.00;101156.19;5054079;28;20033;-76
2022/10/12 10:48:09;;;;;;;1.48;1.20;;;;;;;13.95;100.00;101161.25;5060328;28;20034;-76
2022/10/12 10:50:41;;;;;;;0.88;0.70;;;;;;;13.91;100.00;101155.38;5043756;28;20035;-80
2022/10/12 10:53:22;;;;;;;4.13;1.70;;;;;;;13.95;100.00;101159.38;5066513;28;20029;-77
2022/10/12 10:55:58;;;;;;;5.78;1.17;;;;;;;13.91;100.00;101160.78;5048055;28;20552;-78
2022/10/12 10:58:37;;;;;;;5.05;1.33;;;;;;;13.87;100.00;101167.59;5068248;28;20068;-77
2022/10/12 11:01:13;;;;;;;5.75;1.45;;;;;;;13.88;100.00;101168.44;5049218;28;22439;-79
2022/10/12 11:03:52;;;;;;;8.25;2.40;;;;;;;13.93;100.00;101168.72;5056198;28;20383;-77
2022/10/12 11:06:40;;;;;;;5.43;1.50;;;;;;;13.85;100.00;101156.13;5070861;28;20378;-79
2022/10/12 11:09:39;;;;;;;8.55;1.98;;;;;;;13.92;100.00;101172.41;5071059;28;20044;-78
2022/10/12 11:12:18;;;;;;;12.13;2.28;;;;;;;13.94;100.00;101164.97;5067308;28;20052;-77
2022/10/12 11:14:47;;;;;;;11.38;2.28;;;;;;;14.04;100.00;101170.94;5070003;28;20029;-76
2022/10/12 11:17:19;;;;;;;10.15;2.38;;;;;;;14.17;100.00;101168.38;5066456;28;20032;-77
2022/10/12 11:19:53;;;;;;;10.95;2.00;;;;;;;14.21;100.00;101164.28;5068745;28;20086;-77
2022/10/12 11:22:23;;;;;;;14.05;1.77;;;;;;;14.23;100.00;101166.78;5064298;28;20045;-78
2022/10/12 11:24:53;;;;;;;10.95;2.20;;;;;;;14.26;100.00;101179.94;5068517;28;20073;-77
2022/10/12 11:27:25;;;;;;;8.40;1.92;;;;;;;14.17;100.00;101162.16;5036713;28;20371;-76
2022/10/12 11:29:55;;;;;;;6.43;2.05;;;;;;;14.18;100.00;101161.09;5050756;28;20040;-76